sensor_id;sensor_type;location;lat;lon;timestamp;P1;durP1;ratioP1;P2;durP2;ratioP2
22837;SDS011;11585;51.450;-0.240;2022-10-23T00:01:55;14.32;;;4.40;;
22837;SDS011;11585;51.450;-0.240;2022-10-23T00:04:22;11.98;;;4.22;;
22837;SDS011;11585;51.450;-0.240;2022-10-23T00:06:51;15.90;;;4.10;;
22837;SDS011;11585;51.450;-0.240;2022-10-23T00:09:18;16.15;;;4.63;;
22837;SDS011;11585;51.450;-0.240;2022-10-23T00:11:46;11.55;;;3.67;;
22837;SDS011;11585;51.450;-0.240;2022-10-23T00:14:12;15.38;;;4.32;;
22837;SDS011;11585;51.450;-0.240;2022-10-23T00:16:39;17.25;;;4.78;;
22837;SDS011;11585;51.450;-0.240;2022-10-23T00:19:05;16.15;;;4.35;;
22837;SDS011;11585;51.450;-0.240;2022-10-23T00:21:31;10.50;;;4.72;;
22837;SDS011;11585;51.450;-0.240;2022-10-23T00:23:57;21.08;;;4.47;;
22837;SDS011;11585;51.450;-0.240;2022-10-23T00:26:22;15.20;;;4.70;;
22837;SDS011;11585;51.450;-0.240;2022-10-23T00:28:49;9.82;;;4.13;;
22837;SDS011;11585;51.450;-0.240;2022-10-23T00:31:17;13.23;;;4.05;;
22837;SDS011;11585;51.450;-0.240;2022-10-23T00:33:44;26.23;;;4.68;;
22837;SDS011;11585;51.450;-0.240;2022-10-23T00:36:11;10.25;;;4.18;;
22837;SDS011;11585;51.450;-0.240;2022-10-23T00:38:39;17.00;;;4.28;;
22837;SDS011;11585;51.450;-0.240;2022-10-23T00:41:05;13.52;;;4.60;;
22837;SDS011;11585;51.450;-0.240;2022-10-23T00:43:32;13.32;;;4.18;;
22837;SDS011;11585;51.450;-0.240;2022-10-23T00:45:58;9.93;;;4.38;;
22837;SDS011;11585;51.450;-0.240;2022-10-23T00:48:24;13.32;;;3.80;;
22837;SDS011;11585;51.450;-0.240;2022-10-23T00:50:51;18.17;;;4.15;;
22837;SDS011;11585;51.450;-0.240;2022-10-23T00:53:18;16.67;;;4.70;;
22837;SDS011;11585;51.450;-0.240;2022-10-23T00:55:46;19.83;;;4.38;;
22837;SDS011;11585;51.450;-0.240;2022-10-23T00:58:15;13.02;;;4.22;;
22837;SDS011;11585;51.450;-0.240;2022-10-23T01:00:46;20.50;;;4.20;;
22837;SDS011;11585;51.450;-0.240;2022-10-23T01:03:15;13.02;;;3.65;;
22837;SDS011;11585;51.450;-0.240;2022-10-23T01:05:45;12.05;;;3.72;;
22837;SDS011;11585;51.450;-0.240;2022-10-23T01:08:21;12.95;;;3.88;;
22837;SDS011;11585;51.450;-0.240;2022-10-23T01:10:53;13.77;;;3.85;;
22837;SDS011;11585;51.450;-0.240;2022-10-23T01:13:33;12.43;;;3.55;;
22837;SDS011;11585;51.450;-0.240;2022-10-23T01:16:12;17.77;;;3.28;;
22837;SDS011;11585;51.450;-0.240;2022-10-23T01:18:49;13.48;;;3.70;;
22837;SDS011;11585;51.450;-0.240;2022-10-23T01:21:38;9.80;;;3.30;;
22837;SDS011;11585;51.450;-0.240;2022-10-23T01:29:54;11.00;;;3.70;;
22837;SDS011;11585;51.450;-0.240;2022-10-23T01:35:32;15.75;;;3.25;;
22837;SDS011;11585;51.450;-0.240;2022-10-23T01:38:10;13.85;;;3.22;;
22837;SDS011;11585;51.450;-0.240;2022-10-23T01:40:49;13.43;;;3.27;;
22837;SDS011;11585;51.450;-0.240;2022-10-23T01:43:24;19.55;;;3.38;;
22837;SDS011;11585;51.450;-0.240;2022-10-23T01:45:55;9.93;;;3.05;;
22837;SDS011;11585;51.450;-0.240;2022-10-23T01:48:27;12.93;;;3.53;;
22837;SDS011;11585;51.450;-0.240;2022-10-23T01:50:57;12.27;;;3.60;;
22837;SDS011;11585;51.450;-0.240;2022-10-23T01:53:26;17.25;;;3.33;;
22837;SDS011;11585;51.450;-0.240;2022-10-23T01:55:55;12.23;;;3.03;;
22837;SDS011;11585;51.450;-0.240;2022-10-23T01:58:22;11.75;;;3.08;;
22837;SDS011;11585;51.450;-0.240;2022-10-23T02:00:50;13.45;;;3.25;;
22837;SDS011;11585;51.450;-0.240;2022-10-23T02:03:18;8.95;;;2.78;;
22837;SDS011;11585;51.450;-0.240;2022-10-23T02:05:45;11.23;;;3.20;;
22837;SDS011;11585;51.450;-0.240;2022-10-23T02:08:11;10.93;;;2.97;;
22837;SDS011;11585;51.450;-0.240;2022-10-23T02:10:41;11.23;;;3.35;;
22837;SDS011;11585;51.450;-0.240;2022-10-23T02:13:24;11.77;;;3.40;;
22837;SDS011;11585;51.450;-0.240;2022-10-23T02:21:40;9.77;;;3.17;;
22837;SDS011;11585;51.450;-0.240;2022-10-23T02:24:16;14.38;;;3.20;;
22837;SDS011;11585;51.450;-0.240;2022-10-23T02:26:50;13.13;;;3.03;;
22837;SDS011;11585;51.450;-0.240;2022-10-23T02:29:20;12.35;;;3.08;;
22837;SDS011;11585;51.450;-0.240;2022-10-23T02:31:59;17.67;;;3.85;;
22837;SDS011;11585;51.450;-0.240;2022-10-23T02:34:25;12.35;;;2.88;;
22837;SDS011;11585;51.450;-0.240;2022-10-23T02:36:51;12.10;;;3.20;;
22837;SDS011;11585;51.450;-0.240;2022-10-23T02:39:17;10.32;;;3.10;;
22837;SDS011;11585;51.450;-0.240;2022-10-23T02:47:13;12.23;;;3.60;;
22837;SDS011;11585;51.450;-0.240;2022-10-23T02:49:57;11.25;;;3.15;;
22837;SDS011;11585;51.450;-0.240;2022-10-23T02:52:55;12.23;;;3.47;;
22837;SDS011;11585;51.450;-0.240;2022-10-23T03:01:35;17.63;;;4.90;;
22837;SDS011;11585;51.450;-0.240;2022-10-23T03:04:06;17.40;;;3.65;;
22837;SDS011;11585;51.450;-0.240;2022-10-23T03:06:35;18.65;;;3.35;;
22837;SDS011;11585;51.450;-0.240;2022-10-23T03:09:03;15.45;;;3.20;;
22837;SDS011;11585;51.450;-0.240;2022-10-23T03:11:30;18.17;;;3.58;;
22837;SDS011;11585;51.450;-0.240;2022-10-23T03:13:56;13.95;;;3.15;;
22837;SDS011;11585;51.450;-0.240;2022-10-23T03:16:22;9.23;;;3.03;;
22837;SDS011;11585;51.450;-0.240;2022-10-23T03:18:48;13.73;;;3.30;;
22837;SDS011;11585;51.450;-0.240;2022-10-23T03:21:13;14.90;;;3.72;;
22837;SDS011;11585;51.450;-0.240;2022-10-23T03:23:39;14.10;;;3.40;;
22837;SDS011;11585;51.450;-0.240;2022-10-23T03:26:05;11.32;;;3.25;;
22837;SDS011;11585;51.450;-0.240;2022-10-23T03:28:30;11.88;;;3.33;;
22837;SDS011;11585;51.450;-0.240;2022-10-23T03:30:56;10.70;;;3.53;;
22837;SDS011;11585;51.450;-0.240;2022-10-23T03:33:22;16.85;;;4.00;;
22837;SDS011;11585;51.450;-0.240;2022-10-23T03:35:47;9.07;;;2.95;;
22837;SDS011;11585;51.450;-0.240;2022-10-23T03:38:13;12.15;;;3.55;;
22837;SDS011;11585;51.450;-0.240;2022-10-23T03:40:39;10.40;;;3.03;;
22837;SDS011;11585;51.450;-0.240;2022-10-23T03:43:05;15.80;;;3.40;;
22837;SDS011;11585;51.450;-0.240;2022-10-23T03:45:30;15.05;;;3.70;;
22837;SDS011;11585;51.450;-0.240;2022-10-23T03:47:56;18.25;;;5.07;;
22837;SDS011;11585;51.450;-0.240;2022-10-23T03:50:22;14.52;;;3.65;;
22837;SDS011;11585;51.450;-0.240;2022-10-23T03:52:48;10.35;;;3.40;;
22837;SDS011;11585;51.450;-0.240;2022-10-23T03:55:15;14.82;;;3.53;;
22837;SDS011;11585;51.450;-0.240;2022-10-23T03:57:42;19.92;;;4.05;;
22837;SDS011;11585;51.450;-0.240;2022-10-23T04:00:07;12.52;;;3.72;;
22837;SDS011;11585;51.450;-0.240;2022-10-23T04:02:34;18.13;;;3.53;;
22837;SDS011;11585;51.450;-0.240;2022-10-23T04:04:59;11.57;;;3.80;;
22837;SDS011;11585;51.450;-0.240;2022-10-23T04:07:25;12.40;;;3.47;;
22837;SDS011;11585;51.450;-0.240;2022-10-23T04:09:50;16.13;;;3.63;;
22837;SDS011;11585;51.450;-0.240;2022-10-23T04:12:16;15.15;;;3.45;;
22837;SDS011;11585;51.450;-0.240;2022-10-23T04:14:43;13.00;;;3.63;;
22837;SDS011;11585;51.450;-0.240;2022-10-23T04:17:09;13.95;;;4.07;;
22837;SDS011;11585;51.450;-0.240;2022-10-23T04:19:34;19.40;;;3.95;;
22837;SDS011;11585;51.450;-0.240;2022-10-23T04:22:00;14.77;;;3.42;;
22837;SDS011;11585;51.450;-0.240;2022-10-23T04:24:25;10.88;;;3.25;;
22837;SDS011;11585;51.450;-0.240;2022-10-23T04:26:51;10.43;;;3.58;;
22837;SDS011;11585;51.450;-0.240;2022-10-23T04:29:17;13.68;;;3.38;;
22837;SDS011;11585;51.450;-0.240;2022-10-23T04:31:46;19.50;;;3.53;;
22837;SDS011;11585;51.450;-0.240;2022-10-23T04:34:12;8.98;;;3.15;;
22837;SDS011;11585;51.450;-0.240;2022-10-23T04:36:37;9.63;;;3.00;;
22837;SDS011;11585;51.450;-0.240;2022-10-23T04:39:03;17.48;;;3.45;;
22837;SDS011;11585;51.450;-0.240;2022-10-23T04:41:29;21.40;;;3.80;;
22837;SDS011;11585;51.450;-0.240;2022-10-23T04:43:54;9.82;;;3.60;;
22837;SDS011;11585;51.450;-0.240;2022-10-23T04:46:20;12.52;;;3.40;;
22837;SDS011;11585;51.450;-0.240;2022-10-23T04:48:45;11.75;;;3.50;;
22837;SDS011;11585;51.450;-0.240;2022-10-23T04:51:11;12.10;;;3.22;;
22837;SDS011;11585;51.450;-0.240;2022-10-23T04:53:36;11.50;;;3.22;;
22837;SDS011;11585;51.450;-0.240;2022-10-23T04:56:03;13.73;;;3.30;;
22837;SDS011;11585;51.450;-0.240;2022-10-23T04:58:29;11.50;;;3.10;;
22837;SDS011;11585;51.450;-0.240;2022-10-23T05:00:55;10.27;;;3.50;;
22837;SDS011;11585;51.450;-0.240;2022-10-23T05:03:22;10.13;;;3.40;;
22837;SDS011;11585;51.450;-0.240;2022-10-23T05:05:50;11.38;;;3.35;;
22837;SDS011;11585;51.450;-0.240;2022-10-23T05:08:17;13.70;;;3.60;;
22837;SDS011;11585;51.450;-0.240;2022-10-23T05:10:42;18.27;;;3.53;;
22837;SDS011;11585;51.450;-0.240;2022-10-23T05:13:08;7.25;;;3.00;;
22837;SDS011;11585;51.450;-0.240;2022-10-23T05:15:35;7.50;;;2.67;;
22837;SDS011;11585;51.450;-0.240;2022-10-23T05:18:07;12.00;;;2.78;;
22837;SDS011;11585;51.450;-0.240;2022-10-23T05:20:43;16.52;;;2.90;;
22837;SDS011;11585;51.450;-0.240;2022-10-23T05:23:10;11.23;;;3.33;;
22837;SDS011;11585;51.450;-0.240;2022-10-23T05:25:40;7.88;;;3.17;;
22837;SDS011;11585;51.450;-0.240;2022-10-23T05:28:06;15.20;;;2.95;;
22837;SDS011;11585;51.450;-0.240;2022-10-23T05:30:32;4.25;;;2.28;;
22837;SDS011;11585;51.450;-0.240;2022-10-23T05:32:59;12.93;;;3.03;;
22837;SDS011;11585;51.450;-0.240;2022-10-23T05:38:11;13.93;;;2.80;;
22837;SDS011;11585;51.450;-0.240;2022-10-23T05:40:38;10.85;;;2.50;;
22837;SDS011;11585;51.450;-0.240;2022-10-23T05:43:04;12.80;;;3.20;;
22837;SDS011;11585;51.450;-0.240;2022-10-23T05:48:52;6.18;;;2.30;;
22837;SDS011;11585;51.450;-0.240;2022-10-23T05:51:18;8.10;;;2.42;;
22837;SDS011;11585;51.450;-0.240;2022-10-23T05:53:49;8.95;;;2.40;;
22837;SDS011;11585;51.450;-0.240;2022-10-23T05:56:16;8.75;;;2.40;;
22837;SDS011;11585;51.450;-0.240;2022-10-23T05:58:43;10.75;;;2.58;;
22837;SDS011;11585;51.450;-0.240;2022-10-23T06:01:10;10.23;;;3.17;;
22837;SDS011;11585;51.450;-0.240;2022-10-23T06:03:36;11.93;;;3.40;;
22837;SDS011;11585;51.450;-0.240;2022-10-23T06:08:48;14.55;;;4.07;;
22837;SDS011;11585;51.450;-0.240;2022-10-23T06:11:14;8.10;;;2.92;;
22837;SDS011;11585;51.450;-0.240;2022-10-23T06:13:43;11.27;;;3.00;;
22837;SDS011;11585;51.450;-0.240;2022-10-23T06:18:56;12.27;;;2.83;;
22837;SDS011;11585;51.450;-0.240;2022-10-23T06:21:22;8.65;;;2.88;;
22837;SDS011;11585;51.450;-0.240;2022-10-23T06:23:48;13.15;;;2.67;;
22837;SDS011;11585;51.450;-0.240;2022-10-23T06:26:14;13.23;;;2.70;;
22837;SDS011;11585;51.450;-0.240;2022-10-23T06:28:41;4.35;;;2.05;;
22837;SDS011;11585;51.450;-0.240;2022-10-23T06:31:08;8.98;;;2.10;;
22837;SDS011;11585;51.450;-0.240;2022-10-23T06:33:36;6.50;;;2.00;;
22837;SDS011;11585;51.450;-0.240;2022-10-23T06:38:49;13.18;;;2.63;;
22837;SDS011;11585;51.450;-0.240;2022-10-23T06:41:20;6.93;;;1.98;;
22837;SDS011;11585;51.450;-0.240;2022-10-23T06:43:47;8.82;;;2.00;;
22837;SDS011;11585;51.450;-0.240;2022-10-23T06:46:14;12.00;;;2.40;;
22837;SDS011;11585;51.450;-0.240;2022-10-23T06:48:41;10.95;;;2.70;;
22837;SDS011;11585;51.450;-0.240;2022-10-23T06:51:07;14.05;;;2.92;;
22837;SDS011;11585;51.450;-0.240;2022-10-23T06:53:34;8.90;;;2.30;;
22837;SDS011;11585;51.450;-0.240;2022-10-23T06:56:03;9.48;;;2.25;;
22837;SDS011;11585;51.450;-0.240;2022-10-23T07:00:58;6.50;;;2.20;;
22837;SDS011;11585;51.450;-0.240;2022-10-23T07:03:25;8.80;;;2.60;;
22837;SDS011;11585;51.450;-0.240;2022-10-23T07:05:51;6.25;;;2.33;;
22837;SDS011;11585;51.450;-0.240;2022-10-23T07:08:16;4.18;;;2.40;;
22837;SDS011;11585;51.450;-0.240;2022-10-23T07:10:42;10.43;;;2.72;;
22837;SDS011;11585;51.450;-0.240;2022-10-23T07:13:08;7.93;;;2.40;;
22837;SDS011;11585;51.450;-0.240;2022-10-23T07:18:21;6.93;;;2.20;;
22837;SDS011;11585;51.450;-0.240;2022-10-23T07:20:47;10.38;;;2.47;;
22837;SDS011;11585;51.450;-0.240;2022-10-23T07:23:13;8.52;;;3.00;;
22837;SDS011;11585;51.450;-0.240;2022-10-23T07:25:41;10.00;;;2.70;;
22837;SDS011;11585;51.450;-0.240;2022-10-23T07:28:07;9.98;;;2.75;;
22837;SDS011;11585;51.450;-0.240;2022-10-23T07:30:32;15.48;;;2.85;;
22837;SDS011;11585;51.450;-0.240;2022-10-23T07:32:58;8.65;;;2.88;;
22837;SDS011;11585;51.450;-0.240;2022-10-23T07:35:24;16.90;;;2.85;;
22837;SDS011;11585;51.450;-0.240;2022-10-23T07:37:50;6.53;;;2.40;;
22837;SDS011;11585;51.450;-0.240;2022-10-23T07:40:15;6.57;;;2.40;;
22837;SDS011;11585;51.450;-0.240;2022-10-23T07:42:42;13.27;;;3.08;;
22837;SDS011;11585;51.450;-0.240;2022-10-23T07:45:09;8.23;;;2.78;;
22837;SDS011;11585;51.450;-0.240;2022-10-23T07:50:03;10.50;;;3.22;;
22837;SDS011;11585;51.450;-0.240;2022-10-23T07:52:29;10.43;;;3.00;;
22837;SDS011;11585;51.450;-0.240;2022-10-23T07:57:42;15.13;;;3.20;;
22837;SDS011;11585;51.450;-0.240;2022-10-23T08:00:09;14.07;;;3.55;;
22837;SDS011;11585;51.450;-0.240;2022-10-23T08:02:35;14.45;;;3.20;;
